Time;durP1;ratioP1;P1;durP2;ratioP2;P2;SDS_P1;SDS_P2;PMS_P1;PMS_P2;Temp;Humidity;BMP_temperature;BMP_pressure;BME280_temperature;BME280_humidity;BME280_pressure;Samples;Min_cycle;Max_cycle;Signal;HPM_P1;HPM_P2
2022/06/26 00:03:00;;;;;;;3.13;2.90;;;;;;;20.25;100.00;98045.59;15287670;19;20018;-58
2022/06/26 00:08:08;;;;;;;3.05;1.92;;;;;;;20.24;100.00;98046.66;15275532;19;20015;-60
2022/06/26 00:13:13;;;;;;;2.78;2.40;;;;;;;20.20;100.00;98039.97;15284522;19;20014;-61
2022/06/26 00:18:19;;;;;;;1.40;1.30;;;;;;;20.15;100.00;98039.84;15283442;19;20051;-64
2022/06/26 00:23:26;;;;;;;1.85;0.90;;;;;;;19.99;100.00;98050.38;15281168;19;20018;-59
2022/06/26 00:28:31;;;;;;;0.98;0.70;;;;;;;19.89;100.00;98050.09;15285428;19;20665;-60
2022/06/26 00:33:36;;;;;;;0.70;0.70;;;;;;;19.78;100.00;98050.84;15285654;19;20023;-58
2022/06/26 00:38:44;;;;;;;0.82;0.70;;;;;;;19.71;100.00;98048.19;15275881;19;20006;-62
2022/06/26 00:43:49;;;;;;;1.00;0.70;;;;;;;19.65;100.00;98052.69;15285627;19;20365;-60
2022/06/26 00:48:54;;;;;;;0.90;0.60;;;;;;;19.60;100.00;98060.72;15283021;19;20006;-59
2022/06/26 00:54:03;;;;;;;1.27;0.60;;;;;;;19.51;100.00;98067.56;15279704;19;20014;-60
2022/06/26 00:59:08;;;;;;;1.90;0.73;;;;;;;19.43;100.00;98063.22;15279741;19;20010;-62
2022/06/26 01:04:12;;;;;;;1.02;0.70;;;;;;;19.36;100.00;98066.03;15282662;19;20018;-61
2022/06/26 01:09:20;;;;;;;0.60;0.60;;;;;;;19.27;100.00;98063.84;15278487;19;20557;-62
2022/06/26 01:14:26;;;;;;;2.05;0.60;;;;;;;19.08;100.00;98078.31;15279378;19;20495;-60
2022/06/26 01:19:33;;;;;;;0.73;0.70;;;;;;;19.00;100.00;98067.66;15280766;19;20023;-62
2022/06/26 01:24:41;;;;;;;1.55;0.70;;;;;;;18.98;100.00;98060.75;15275771;19;20010;-61
2022/06/26 01:29:46;;;;;;;1.85;0.80;;;;;;;18.94;100.00;98065.84;15275547;19;20557;-58
2022/06/26 01:34:52;;;;;;;0.65;0.65;;;;;;;18.93;100.00;98067.72;15279064;19;20839;-63
2022/06/26 01:40:00;;;;;;;1.33;0.77;;;;;;;18.91;100.00;98075.28;15277164;19;20011;-61
2022/06/26 01:45:06;;;;;;;1.02;0.70;;;;;;;18.89;100.00;98071.09;15269124;19;20373;-59
2022/06/26 01:50:11;;;;;;;1.05;0.80;;;;;;;18.88;100.00;98072.16;15277619;19;20010;-61
2022/06/26 01:55:20;;;;;;;2.83;1.00;;;;;;;18.88;100.00;98080.34;15278993;19;20019;-61
2022/06/26 02:00:26;;;;;;;0.95;0.90;;;;;;;18.83;100.00;98077.47;15270434;19;20583;-61
2022/06/26 02:05:32;;;;;;;1.00;0.90;;;;;;;18.81;100.00;98080.44;15276503;19;20038;-64
2022/06/26 02:16:02;;;;;;;2.80;0.85;;;;;;;18.76;100.00;98085.72;15271958;19;20007;-60
2022/06/26 02:21:09;;;;;;;1.95;1.02;;;;;;;18.74;100.00;98085.09;15273467;19;20018;-61
2022/06/26 02:26:19;;;;;;;2.05;0.82;;;;;;;18.73;100.00;98088.88;15273612;19;20496;-64
2022/06/26 02:31:24;;;;;;;0.70;0.70;;;;;;;18.69;100.00;98087.66;15267953;19;20021;-59
2022/06/26 02:36:29;;;;;;;1.92;0.80;;;;;;;18.66;100.00;98099.00;15275186;19;20026;-61
2022/06/26 02:41:40;;;;;;;1.13;0.77;;;;;;;18.61;100.00;98102.41;15272642;19;20006;-60
2022/06/26 02:46:47;;;;;;;1.48;0.98;;;;;;;18.57;100.00;98101.16;15268053;19;20463;-57
2022/06/26 02:51:52;;;;;;;1.60;0.95;;;;;;;18.51;100.00;98108.34;15271675;19;20337;-57
2022/06/26 02:57:00;;;;;;;0.75;0.75;;;;;;;18.43;100.00;98116.81;15276678;19;20026;-59
2022/06/26 03:02:06;;;;;;;1.05;0.95;;;;;;;18.31;100.00;98119.38;15252137;19;20684;-64
2022/06/26 03:07:19;;;;;;;1.52;1.20;;;;;;;18.20;100.00;98122.81;15269554;19;20701;-64
2022/06/26 03:12:28;;;;;;;1.08;0.95;;;;;;;18.16;100.00;98122.41;15273181;19;20015;-63
2022/06/26 03:17:33;;;;;;;1.85;1.00;;;;;;;18.10;100.00;98129.56;15272897;19;20033;-64
2022/06/26 03:22:41;;;;;;;1.65;0.90;;;;;;;18.09;100.00;98125.16;15264268;19;20015;-64
2022/06/26 03:27:50;;;;;;;0.80;0.80;;;;;;;18.10;100.00;98129.56;15267958;19;20011;-64
2022/06/26 03:32:57;;;;;;;1.30;1.10;;;;;;;18.05;100.00;98126.63;15271213;19;20011;-64
2022/06/26 03:38:02;;;;;;;1.10;1.00;;;;;;;18.07;100.00;98138.16;15263798;19;20025;-64
2022/06/26 03:43:11;;;;;;;1.00;0.90;;;;;;;18.09;100.00;98140.69;15269650;19;20464;-64
2022/06/26 03:48:26;;;;;;;1.10;1.00;;;;;;;18.12;100.00;98154.72;15277703;19;20035;-63
2022/06/26 03:53:31;;;;;;;1.33;0.90;;;;;;;18.16;100.00;98158.69;15279893;19;20407;-64
2022/06/26 03:58:39;;;;;;;1.65;0.90;;;;;;;18.17;100.00;98162.25;15284042;19;20014;-63
2022/06/26 04:03:46;;;;;;;0.93;0.90;;;;;;;18.21;100.00;98166.22;15285447;19;20022;-64
2022/06/26 04:08:51;;;;;;;0.90;0.90;;;;;;;18.26;100.00;98157.38;15278997;19;20429;-64
2022/06/26 04:13:59;;;;;;;1.17;1.00;;;;;;;18.31;100.00;98163.88;15284387;19;20018;-63
2022/06/26 04:19:04;;;;;;;1.20;1.00;;;;;;;18.34;100.00;98162.59;15281785;19;20031;-64
2022/06/26 04:24:10;;;;;;;2.67;0.93;;;;;;;18.36;100.00;98154.16;15276453;19;20093;-64
2022/06/26 04:29:18;;;;;;;1.73;1.00;;;;;;;18.38;100.00;98163.81;15282678;19;20014;-64
2022/06/26 04:34:23;;;;;;;1.65;1.00;;;;;;;18.43;100.00;98165.91;15281913;19;20439;-64
2022/06/26 04:39:29;;;;;;;2.80;1.10;;;;;;;18.48;100.00;98166.91;15277075;19;20026;-63
2022/06/26 04:44:42;;;;;;;1.17;1.00;;;;;;;18.54;100.00;98164.34;15280595;19;20094;-63
2022/06/26 04:49:48;;;;;;;1.33;0.90;;;;;;;18.62;100.00;98169.56;15281044;19;20875;-64
2022/06/26 04:54:53;;;;;;;1.55;0.90;;;;;;;18.70;100.00;98168.47;15280525;19;20014;-64
2022/06/26 05:00:03;;;;;;;1.95;0.90;;;;;;;18.78;100.00;98169.00;15278521;19;20094;-64
2022/06/26 05:05:10;;;;;;;1.58;0.98;;;;;;;18.87;100.00;98172.31;15281494;19;20365;-64
2022/06/26 05:10:42;;;;;;;1.67;0.95;;;;;;;18.99;100.00;98166.19;15274417;19;20033;-65
2022/06/26 05:15:51;;;;;;;1.38;1.00;;;;;;;19.12;100.00;98177.00;15280210;19;20018;-64
2022/06/26 05:20:56;;;;;;;2.15;1.00;;;;;;;19.26;100.00;98172.25;15276758;19;20043;-64
2022/06/26 05:26:08;;;;;;;2.38;0.80;;;;;;;19.44;100.00;98168.72;15279615;19;20708;-63
2022/06/26 05:31:16;;;;;;;1.58;1.02;;;;;;;19.64;100.00;98181.34;15265121;19;20027;-63
2022/06/26 05:36:21;;;;;;;1.58;1.02;;;;;;;19.83;100.00;98176.72;15278477;19;20014;-63
2022/06/26 05:41:27;;;;;;;1.80;0.90;;;;;;;19.95;100.00;98171.38;15273629;19;20489;-63
2022/06/26 05:46:35;;;;;;;2.80;0.80;;;;;;;20.05;100.00;98165.38;15271174;19;20006;-65
2022/06/26 05:51:59;;;;;;;1.40;1.00;;;;;;;20.12;100.00;98166.94;15275100;19;20451;-63
2022/06/26 05:57:27;;;;;;;1.27;0.90;;;;;;;20.20;100.00;98157.59;15276589;19;20014;-63
2022/06/26 06:02:53;;;;;;;1.45;1.00;;;;;;;20.33;100.00;98154.66;15273106;19;20018;-62
2022/06/26 06:07:59;;;;;;;1.83;0.70;;;;;;;20.53;100.00;98160.94;15271519;19;20014;-65
2022/06/26 06:13:04;;;;;;;1.13;0.80;;;;;;;20.75;100.00;98159.38;15276786;19;20014;-63
2022/06/26 06:18:13;;;;;;;1.75;0.82;;;;;;;21.01;100.00;98164.66;15269530;19;20021;-63
2022/06/26 06:23:18;;;;;;;1.20;0.80;;;;;;;21.29;100.00;98157.66;15275727;19;20003;-63
2022/06/26 06:28:24;;;;;;;2.05;0.85;;;;;;;21.51;100.00;98156.00;15270607;19;20014;-64
2022/06/26 06:33:32;;;;;;;0.70;0.70;;;;;;;21.65;100.00;98162.09;15268681;19;20023;-64
2022/06/26 06:38:37;;;;;;;1.70;0.98;;;;;;;21.79;100.00;98170.91;15273460;19;20018;-64
2022/06/26 06:43:46;;;;;;;1.05;0.65;;;;;;;21.90;100.00;98173.88;15273469;19;20078;-64
2022/06/26 06:49:17;;;;;;;2.30;0.82;;;;;;;22.00;100.00;98182.31;15264153;19;20473;-64
2022/06/26 06:54:30;;;;;;;1.20;0.80;;;;;;;22.15;100.00;98182.63;15274209;19;20038;-65
2022/06/26 06:59:35;;;;;;;1.25;0.77;;;;;;;22.30;100.00;98181.25;15274637;19;20019;-66
2022/06/26 07:04:43;;;;;;;1.08;0.68;;;;;;;22.46;100.00;98193.44;15272821;19;20426;-65
2022/06/26 07:09:48;;;;;;;0.75;0.65;;;;;;;22.62;100.00;98198.13;15269833;19;20389;-65
2022/06/26 07:14:55;;;;;;;1.58;0.70;;;;;;;22.82;100.00;98190.50;15271386;19;20471;-63
2022/06/26 07:20:03;;;;;;;3.45;0.70;;;;;;;23.01;100.00;98189.19;15269934;19;20006;-66
2022/06/26 07:25:09;;;;;;;1.00;0.60;;;;;;;23.22;100.00;98187.66;15288228;19;20082;-63
2022/06/26 07:30:22;;;;;;;1.42;0.90;;;;;;;23.37;100.00;98186.25;15282895;19;20447;-65
2022/06/26 07:35:42;;;;;;;1.80;0.70;;;;;;;23.61;100.00;98197.88;15282254;19;20026;-65
2022/06/26 07:40:47;;;;;;;1.45;0.80;;;;;;;23.80;100.00;98200.38;15275862;19;20039;-64
2022/06/26 07:45:53;;;;;;;1.05;0.70;;;;;;;24.10;100.00;98193.63;15285452;19;20019;-64
2022/06/26 07:51:02;;;;;;;2.05;0.75;;;;;;;24.29;100.00;98196.91;15304347;19;20058;-63
2022/06/26 07:56:08;;;;;;;1.75;0.52;;;;;;;24.56;100.00;98201.63;15332109;19;20554;-63
2022/06/26 08:01:13;;;;;;;2.05;0.60;;;;;;;24.79;100.00;98207.97;15328535;19;20018;-63
2022/06/26 08:06:28;;;;;;;0.60;0.40;;;;;;;24.97;100.00;98202.06;15333207;19;20010;-63
2022/06/26 08:11:35;;;;;;;1.35;0.60;;;;;;;25.25;100.00;98200.13;15323917;19;20018;-65
2022/06/26 08:16:44;;;;;;;1.45;0.25;;;;;;;25.44;92.67;98211.59;15340744;19;20010;-66
2022/06/26 08:22:04;;;;;;;1.00;0.55;;;;;;;25.53;96.63;98193.47;15350690;19;20014;-59
2022/06/26 08:27:10;;;;;;;0.52;0.40;;;;;;;25.64;84.61;98204.56;15359764;19;20022;-63
2022/06/26 08:32:17;;;;;;;1.38;0.30;;;;;;;25.73;81.27;98197.44;15362965;19;20006;-61
2022/06/26 08:37:29;;;;;;;1.00;0.35;;;;;;;25.89;75.13;98200.31;15371675;19;20030;-59
2022/06/26 08:42:39;;;;;;;0.40;0.35;;;;;;;25.97;71.02;98202.56;15354988;19;20021;-59
2022/06/26 08:47:45;;;;;;;0.40;0.38;;;;;;;26.10;69.27;98207.63;15299100;19;20010;-59
2022/06/26 08:52:55;;;;;;;1.67;0.40;;;;;;;26.20;66.94;98192.22;15357421;19;19999;-63
2022/06/26 08:58:00;;;;;;;1.20;0.40;;;;;;;26.46;65.88;98193.16;15289308;19;20921;-61
2022/06/26 09:03:06;;;;;;;0.77;0.20;;;;;;;26.61;67.52;98195.94;15293607;19;20504;-62
2022/06/26 09:08:25;;;;;;;0.50;0.30;;;;;;;26.80;60.56;98203.78;15287656;19;20409;-62
2022/06/26 09:13:40;;;;;;;0.40;0.20;;;;;;;27.01;55.76;98192.75;15282306;19;20018;-61
2022/06/26 09:18:46;;;;;;;0.60;0.20;;;;;;;27.23;57.04;98203.50;15285203;19;20042;-61
2022/06/26 09:23:56;;;;;;;0.35;0.20;;;;;;;27.35;55.38;98193.00;15287404;19;20021;-61
2022/06/26 09:29:10;;;;;;;0.88;0.30;;;;;;;27.42;55.32;98200.22;15281860;19;20421;-64
2022/06/26 09:34:24;;;;;;;0.55;0.28;;;;;;;27.42;51.63;98194.69;15285638;19;20725;-63
2022/06/26 09:39:34;;;;;;;2.65;0.30;;;;;;;27.62;53.13;98191.91;15284497;19;20054;-63
2022/06/26 09:44:46;;;;;;;0.63;0.30;;;;;;;27.65;53.03;98179.44;15283878;19;20039;-64
2022/06/26 09:49:52;;;;;;;0.40;0.38;;;;;;;27.82;53.62;98179.13;15283072;19;20024;-63
2022/06/26 09:55:01;;;;;;;0.52;0.20;;;;;;;27.82;53.19;98179.97;15286927;19;20021;-64
2022/06/26 10:00:10;;;;;;;0.70;0.30;;;;;;;27.96;53.23;98173.84;15281735;19;20022;-62
2022/06/26 10:10:38;;;;;;;0.20;0.20;;;;;;;28.24;51.52;98186.25;15275152;19;20013;-60
2022/06/26 10:15:52;;;;;;;0.45;0.30;;;;;;;28.39;51.25;98192.84;15275833;19;20007;-59
2022/06/26 10:21:00;;;;;;;1.00;0.38;;;;;;;28.55;51.15;98188.03;15269497;19;20014;-61
2022/06/26 10:26:23;;;;;;;1.23;0.40;;;;;;;28.73;51.44;98183.81;15273236;19;20487;-60
2022/06/26 10:31:31;;;;;;;1.45;0.20;;;;;;;28.97;52.53;98180.31;15272938;19;20014;-61
2022/06/26 10:36:36;;;;;;;0.40;0.20;;;;;;;29.17;50.67;98180.16;15271247;19;20750;-61
2022/06/26 10:47:03;;;;;;;0.22;0.20;;;;;;;29.32;50.39;98186.69;15272823;19;20042;-63
2022/06/26 10:52:09;;;;;;;0.25;0.25;;;;;;;29.26;49.41;98185.06;15265128;19;20582;-62
2022/06/26 10:57:18;;;;;;;2.55;0.13;;;;;;;29.16;49.83;98186.00;15292732;19;20018;-59
2022/06/26 11:02:23;;;;;;;0.80;0.20;;;;;;;29.02;49.25;98177.50;15300180;19;20039;-61
2022/06/26 11:07:28;;;;;;;0.65;0.30;;;;;;;29.12;49.98;98171.84;15297049;19;20035;-60
2022/06/26 11:12:44;;;;;;;1.20;0.20;;;;;;;29.40;48.85;98165.84;15300884;19;20025;-60
2022/06/26 11:17:55;;;;;;;0.57;0.30;;;;;;;29.73;48.71;98158.56;15301019;19;20046;-61
2022/06/26 11:23:01;;;;;;;0.22;0.20;;;;;;;30.11;47.88;98160.66;15294559;19;20019;-61
2022/06/26 11:28:10;;;;;;;0.43;0.17;;;;;;;30.55;47.06;98155.94;15298642;19;20012;-60
2022/06/26 11:33:15;;;;;;;0.50;0.20;;;;;;;30.91;46.73;98158.19;15299166;19;20038;-61
2022/06/26 11:38:21;;;;;;;0.50;0.25;;;;;;;30.94;46.67;98156.75;15297717;19;20042;-61
2022/06/26 11:43:28;;;;;;;1.35;0.20;;;;;;;30.97;46.67;98154.22;15297353;19;20018;-60
2022/06/26 11:48:33;;;;;;;0.70;0.20;;;;;;;31.26;45.53;98144.03;15299093;19;20018;-59
2022/06/26 11:53:39;;;;;;;0.40;0.20;;;;;;;31.47;45.58;98142.53;15295018;19;20015;-61
2022/06/26 11:58:49;;;;;;;0.82;0.30;;;;;;;31.32;45.74;98140.88;15300522;19;20006;-61
2022/06/26 12:03:55;;;;;;;0.20;0.20;;;;;;;31.28;45.47;98145.38;15297641;19;20023;-61
2022/06/26 12:14:52;;;;;;;0.80;0.20;;;;;;;31.66;43.26;98134.13;15282054;19;19982;-63
2022/06/26 12:20:08;;;;;;;2.30;0.20;;;;;;;31.93;42.51;98137.25;15282845;19;20006;-61
2022/06/26 12:25:14;;;;;;;1.60;0.25;;;;;;;31.96;44.59;98143.00;15286306;19;20006;-62
2022/06/26 12:30:24;;;;;;;1.33;0.20;;;;;;;31.91;43.67;98148.72;15274284;19;20019;-63
2022/06/26 12:35:34;;;;;;;0.25;0.20;;;;;;;31.86;44.30;98143.22;15284590;19;20018;-61
2022/06/26 12:40:39;;;;;;;0.50;0.20;;;;;;;31.61;44.58;98141.75;15279956;19;20018;-57
2022/06/26 12:45:46;;;;;;;0.40;0.28;;;;;;;31.64;45.09;98141.94;15279446;19;20744;-64
2022/06/26 12:50:52;;;;;;;0.28;0.20;;;;;;;31.76;44.41;98135.88;15279203;19;20014;-62
2022/06/26 12:55:58;;;;;;;0.60;0.20;;;;;;;32.20;44.20;98141.97;15278819;19;20014;-62
2022/06/26 13:01:07;;;;;;;0.30;0.30;;;;;;;32.85;42.09;98140.03;15270405;19;20015;-62
2022/06/26 13:06:13;;;;;;;;;;;;;;;33.07;40.23;98135.59;15277412;19;20085;-60
2022/06/26 13:11:27;;;;;;;0.93;0.20;;;;;;;33.17;41.03;98129.75;15278013;19;19918;-61
2022/06/26 13:16:35;;;;;;;0.40;0.10;;;;;;;33.33;40.25;98127.38;15277933;19;20006;-61
2022/06/26 13:21:41;;;;;;;0.17;0.10;;;;;;;33.50;39.28;98123.06;15275928;19;20022;-61
2022/06/26 13:26:47;;;;;;;0.10;0.10;;;;;;;33.73;39.19;98123.81;15281451;19;20006;-60
2022/06/26 13:31:55;;;;;;;1.35;0.20;;;;;;;33.55;38.35;98130.47;15270242;19;20014;-61
2022/06/26 13:37:01;;;;;;;1.95;0.10;;;;;;;33.06;39.19;98125.56;15279191;19;20014;-61
2022/06/26 13:42:11;;;;;;;0.65;0.20;;;;;;;33.12;40.06;98115.09;15273645;19;20014;-61
2022/06/26 13:47:20;;;;;;;0.90;0.30;;;;;;;33.28;41.28;98129.47;15273875;19;20018;-61
2022/06/26 13:52:26;;;;;;;0.57;0.30;;;;;;;33.80;40.40;98120.56;15274565;19;20018;-63
2022/06/26 13:57:31;;;;;;;0.20;0.20;;;;;;;34.18;38.51;98122.00;15277864;19;20018;-62
2022/06/26 14:02:40;;;;;;;1.95;0.20;;;;;;;34.46;36.52;98116.19;15269117;19;20035;-62
2022/06/26 14:07:45;;;;;;;0.82;0.20;;;;;;;34.47;36.85;98115.03;15276564;19;20035;-60
2022/06/26 14:12:50;;;;;;;1.85;0.20;;;;;;;34.45;35.17;98114.53;15275392;19;20011;-60
2022/06/26 14:17:58;;;;;;;0.22;0.13;;;;;;;34.66;34.47;98107.13;15275219;19;20047;-60
2022/06/26 14:28:21;;;;;;;0.10;0.10;;;;;;;34.22;36.92;98109.03;15274724;19;20006;-61
2022/06/26 14:33:30;;;;;;;0.15;0.15;;;;;;;33.98;37.10;98113.09;15271465;19;20031;-61
2022/06/26 14:38:37;;;;;;;1.65;0.30;;;;;;;33.75;37.26;98109.53;15270747;19;20021;-62
2022/06/26 14:43:47;;;;;;;0.20;0.10;;;;;;;33.78;36.95;98104.13;15273920;19;20006;-61
2022/06/26 14:48:55;;;;;;;0.30;0.10;;;;;;;34.04;37.83;98099.78;15274054;19;20019;-62
2022/06/26 14:54:00;;;;;;;0.75;0.30;;;;;;;34.52;36.72;98095.28;15267673;19;20019;-62
2022/06/26 14:59:05;;;;;;;0.45;0.10;;;;;;;34.90;36.57;98080.63;15274855;19;20019;-62
2022/06/26 15:04:13;;;;;;;0.20;0.20;;;;;;;34.86;34.96;98088.03;15270615;19;20006;-61
2022/06/26 15:09:19;;;;;;;2.22;0.22;;;;;;;34.64;35.95;98087.03;15266626;19;20016;-61
2022/06/26 15:14:24;;;;;;;0.57;0.22;;;;;;;35.02;36.31;98078.00;15274621;19;20010;-61
2022/06/26 15:19:31;;;;;;;0.88;0.30;;;;;;;35.39;35.48;98079.53;15274562;19;20014;-62
2022/06/26 15:24:37;;;;;;;0.10;0.10;;;;;;;35.33;34.85;98076.94;15269180;19;20011;-62
2022/06/26 15:29:42;;;;;;;0.38;0.20;;;;;;;35.81;34.48;98076.94;15273042;19;20023;-60
2022/06/26 15:34:50;;;;;;;0.22;0.20;;;;;;;36.07;34.33;98064.75;15274151;19;20010;-62
2022/06/26 15:39:55;;;;;;;1.48;0.20;;;;;;;36.65;33.75;98064.19;15265525;19;20512;-62
2022/06/26 15:45:01;;;;;;;0.95;0.20;;;;;;;36.98;33.29;98060.63;15287925;19;20014;-62
2022/06/26 15:50:11;;;;;;;1.20;0.25;;;;;;;36.96;33.00;98069.38;15284593;19;20038;-58
2022/06/26 15:55:16;;;;;;;1.05;0.20;;;;;;;35.92;34.03;98052.97;15288462;19;20023;-64
2022/06/26 16:00:21;;;;;;;0.60;0.20;;;;;;;35.89;33.46;98059.25;15282231;19;20022;-61
2022/06/26 16:05:29;;;;;;;0.32;0.20;;;;;;;35.74;33.87;98054.22;15285129;19;20014;-61
2022/06/26 16:10:34;;;;;;;1.40;0.30;;;;;;;35.84;34.38;98045.41;15283007;19;20014;-61
2022/06/26 16:15:39;;;;;;;0.30;0.20;;;;;;;35.79;34.25;98048.44;15280521;19;20408;-59
2022/06/26 16:20:47;;;;;;;1.38;0.10;;;;;;;35.47;34.05;98043.13;15281313;19;20015;-61
2022/06/26 16:31:15;;;;;;;0.68;0.17;;;;;;;35.09;34.50;98018.69;15275339;19;20333;-59
2022/06/26 16:36:24;;;;;;;2.03;0.30;;;;;;;35.38;34.21;98028.31;15283479;19;20014;-59
2022/06/26 16:41:30;;;;;;;0.95;0.30;;;;;;;35.56;34.14;98043.09;15280683;19;20125;-57
2022/06/26 16:46:35;;;;;;;0.22;0.20;;;;;;;35.81;33.36;98034.91;15278535;19;20043;-60
2022/06/26 16:51:43;;;;;;;0.30;0.20;;;;;;;35.74;33.79;98045.81;15279364;19;20018;-64
2022/06/26 16:56:48;;;;;;;0.93;0.22;;;;;;;35.26;34.55;98037.41;15282293;19;20022;-65
2022/06/26 17:01:53;;;;;;;1.00;0.20;;;;;;;34.80;35.21;98038.97;15272208;19;20116;-61
2022/06/26 17:07:02;;;;;;;0.57;0.30;;;;;;;34.11;35.85;98036.69;15284351;19;20088;-61
2022/06/26 17:12:09;;;;;;;0.80;0.20;;;;;;;33.53;36.35;98033.03;15277482;19;20019;-65
2022/06/26 17:17:14;;;;;;;0.73;0.20;;;;;;;32.86;37.81;98029.25;15276335;19;20015;-62
2022/06/26 17:22:21;;;;;;;1.55;0.10;;;;;;;32.57;38.92;98028.53;15276838;19;20582;-64
2022/06/26 17:27:27;;;;;;;0.50;0.22;;;;;;;32.30;39.98;98025.84;15277871;19;20010;-65
2022/06/26 17:32:32;;;;;;;0.60;0.30;;;;;;;32.00;40.58;98030.97;15275909;19;20045;-62
2022/06/26 17:37:40;;;;;;;0.68;0.30;;;;;;;31.65;40.96;98021.06;15276480;19;20092;-64
2022/06/26 17:42:45;;;;;;;1.20;0.30;;;;;;;31.48;42.05;98026.44;15277735;19;20511;-60
2022/06/26 17:47:56;;;;;;;0.10;0.10;;;;;;;31.14;43.24;98024.88;15278542;19;20409;-52
2022/06/26 17:53:06;;;;;;;0.30;0.22;;;;;;;30.96;44.50;98016.25;15270244;19;20027;-57
2022/06/26 17:58:12;;;;;;;;;;;;;;;30.99;46.20;98021.19;15278727;19;20090;-57
2022/06/26 18:03:17;;;;;;;2.97;0.60;;;;;;;31.27;45.92;98026.84;15275216;19;19978;-61
2022/06/26 18:08:25;;;;;;;0.30;0.30;;;;;;;31.44;45.90;98028.19;15270394;19;20046;-58
2022/06/26 18:13:30;;;;;;;0.73;0.30;;;;;;;31.50;45.45;98026.94;15272414;19;20017;-59
2022/06/26 18:18:36;;;;;;;2.25;0.40;;;;;;;31.61;45.46;98033.97;15274443;19;20026;-59
2022/06/26 18:23:44;;;;;;;1.20;0.38;;;;;;;31.46;46.12;98023.97;15266960;19;20011;-62
2022/06/26 18:28:49;;;;;;;0.60;0.30;;;;;;;31.16;46.44;98031.78;15274657;19;20119;-60
2022/06/26 18:33:55;;;;;;;1.98;0.30;;;;;;;31.11;46.74;98031.00;15271912;19;20017;-58
2022/06/26 18:39:03;;;;;;;1.73;0.45;;;;;;;30.74;47.75;98036.38;15269877;19;20017;-64
2022/06/26 18:44:09;;;;;;;0.65;0.40;;;;;;;30.46;48.49;98043.75;15272446;19;20043;-59
2022/06/26 18:49:15;;;;;;;5.38;0.40;;;;;;;30.12;49.97;98038.16;15272798;19;20367;-54
2022/06/26 18:54:23;;;;;;;1.08;0.40;;;;;;;29.75;50.88;98030.56;15269567;19;20028;-60
2022/06/26 18:59:28;;;;;;;1.38;0.40;;;;;;;29.43;51.03;98049.53;15276779;19;20014;-60
2022/06/26 19:04:34;;;;;;;0.77;0.20;;;;;;;29.17;51.76;98041.47;15276087;19;20033;-60
2022/06/26 19:10:02;;;;;;;0.95;0.30;;;;;;;28.80;53.44;98044.88;15271508;19;20090;-59
2022/06/26 19:15:08;;;;;;;1.00;0.30;;;;;;;28.58;54.53;98048.88;15277358;19;20048;-57
2022/06/26 19:20:14;;;;;;;0.47;0.30;;;;;;;28.36;55.16;98054.88;15290229;19;20010;-58
2022/06/26 19:25:22;;;;;;;0.82;0.38;;;;;;;28.23;55.86;98067.41;15283760;19;20014;-61
2022/06/26 19:30:28;;;;;;;0.50;0.40;;;;;;;28.01;56.44;98071.38;15264777;19;20078;-58
2022/06/26 19:35:33;;;;;;;0.95;0.30;;;;;;;27.80;57.03;98065.94;15288840;19;20395;-62
2022/06/26 19:40:42;;;;;;;0.52;0.32;;;;;;;27.63;58.11;98066.28;15287690;19;20018;-60
2022/06/26 19:45:47;;;;;;;0.55;0.40;;;;;;;27.46;59.76;98065.78;15282567;19;20018;-64
2022/06/26 19:50:52;;;;;;;0.57;0.30;;;;;;;27.37;61.55;98079.34;15286436;19;20014;-59
2022/06/26 19:56:01;;;;;;;0.43;0.30;;;;;;;27.17;64.74;98077.44;15289113;19;20024;-55
2022/06/26 20:01:08;;;;;;;0.88;0.30;;;;;;;26.96;66.23;98069.16;15281062;19;20626;-57
2022/06/26 20:06:14;;;;;;;1.23;0.40;;;;;;;26.81;68.04;98072.78;15287929;19;20025;-60
2022/06/26 20:11:22;;;;;;;0.50;0.40;;;;;;;26.77;70.95;98074.41;15285470;19;20418;-58
2022/06/26 20:16:28;;;;;;;2.47;0.57;;;;;;;26.66;75.72;98058.91;15281654;19;20014;-53
2022/06/26 20:21:33;;;;;;;0.47;0.30;;;;;;;26.37;79.03;98060.28;15282941;19;20014;-59
2022/06/26 20:32:23;;;;;;;0.80;0.40;;;;;;;26.04;82.82;98054.09;15273312;19;19978;-61
2022/06/26 20:37:29;;;;;;;0.75;0.60;;;;;;;25.97;83.87;98059.03;15285767;19;20010;-56
2022/06/26 20:42:34;;;;;;;1.23;0.60;;;;;;;25.85;87.55;98053.78;15282597;19;20010;-60
2022/06/26 20:47:43;;;;;;;1.20;0.50;;;;;;;25.68;91.72;98046.53;14770694;19;10001683;-58
2022/06/26 20:52:48;;;;;;;0.75;0.50;;;;;;;25.56;94.73;98040.41;15278830;19;20476;-61
2022/06/26 20:57:53;;;;;;;0.57;0.50;;;;;;;25.47;97.67;98040.06;15283447;19;20039;-59
2022/06/26 21:03:02;;;;;;;0.60;0.60;;;;;;;25.39;98.22;98037.81;15274037;19;20018;-56
2022/06/26 21:08:07;;;;;;;1.58;0.60;;;;;;;25.24;100.00;98042.13;15282397;19;20073;-59
2022/06/26 21:13:12;;;;;;;1.75;0.60;;;;;;;25.15;100.00;98043.72;15279107;19;20035;-61
2022/06/26 21:18:22;;;;;;;1.50;0.60;;;;;;;25.03;100.00;98038.44;15281102;19;20514;-60
2022/06/26 21:23:28;;;;;;;1.67;0.68;;;;;;;24.96;100.00;98040.56;15274459;19;20361;-61
2022/06/26 21:28:33;;;;;;;0.80;0.57;;;;;;;24.88;100.00;98039.13;15281029;19;20354;-60
2022/06/26 21:33:42;;;;;;;1.92;0.70;;;;;;;24.80;100.00;98033.31;15272146;19;20039;-57
2022/06/26 21:38:47;;;;;;;0.85;0.60;;;;;;;24.73;100.00;98036.28;15276129;19;20043;-61
2022/06/26 21:43:52;;;;;;;0.60;0.60;;;;;;;24.75;100.00;98023.09;15275500;19;20010;-58
2022/06/26 21:49:07;;;;;;;1.05;0.65;;;;;;;24.78;100.00;98033.56;15281523;19;20010;-61
2022/06/26 21:54:14;;;;;;;2.95;0.80;;;;;;;24.78;100.00;98030.81;15271440;19;20058;-59
2022/06/26 21:59:19;;;;;;;1.05;0.70;;;;;;;24.75;100.00;98025.84;15280730;19;20018;-61
2022/06/26 22:04:26;;;;;;;0.85;0.60;;;;;;;24.68;100.00;98028.78;15275722;19;20745;-61
2022/06/26 22:09:32;;;;;;;2.92;0.70;;;;;;;24.62;100.00;98025.16;15271728;19;20018;-61
2022/06/26 22:14:37;;;;;;;1.75;0.93;;;;;;;24.44;100.00;98020.88;15279226;19;20015;-61
2022/06/26 22:19:45;;;;;;;1.77;0.60;;;;;;;24.39;100.00;98020.00;15279461;19;20035;-57
2022/06/26 22:24:50;;;;;;;0.60;0.60;;;;;;;24.18;100.00;98018.97;15274162;19;20021;-58
2022/06/26 22:29:55;;;;;;;1.13;0.80;;;;;;;24.01;100.00;98025.41;15277346;19;20024;-57
2022/06/26 22:35:03;;;;;;;0.77;0.70;;;;;;;23.86;100.00;98017.78;15278582;19;20025;-58
2022/06/26 22:40:09;;;;;;;1.55;0.65;;;;;;;23.78;100.00;98019.06;15271136;19;20386;-57
2022/06/26 22:45:15;;;;;;;4.22;0.80;;;;;;;23.65;100.00;98009.31;15277688;19;20011;-58
2022/06/26 22:50:23;;;;;;;1.45;0.80;;;;;;;23.62;100.00;98026.31;15273387;19;20022;-56
2022/06/26 22:55:28;;;;;;;2.67;0.90;;;;;;;23.60;100.00;98028.47;15274983;19;20010;-58
2022/06/26 23:00:34;;;;;;;0.80;0.70;;;;;;;23.37;100.00;98029.56;15271959;19;20046;-58
2022/06/26 23:05:42;;;;;;;2.03;0.73;;;;;;;23.22;100.00;98024.72;15274812;19;20355;-55
2022/06/26 23:10:47;;;;;;;1.20;0.80;;;;;;;23.03;100.00;98033.19;15266843;19;20006;-56
2022/06/26 23:15:52;;;;;;;1.50;0.80;;;;;;;22.96;100.00;98021.56;15274713;19;20007;-54
2022/06/26 23:21:00;;;;;;;1.40;0.70;;;;;;;22.83;100.00;97999.94;15273079;19;20034;-56
2022/06/26 23:26:05;;;;;;;1.50;0.73;;;;;;;22.73;100.00;98001.44;15274708;19;20021;-56
2022/06/26 23:31:10;;;;;;;1.33;0.85;;;;;;;22.56;100.00;97995.13;15267940;19;20086;-58
2022/06/26 23:36:18;;;;;;;1.42;0.80;;;;;;;22.47;100.00;97990.06;15272138;19;20006;-59
2022/06/26 23:41:23;;;;;;;1.85;0.80;;;;;;;22.31;100.00;97988.94;15272753;19;20022;-57
2022/06/26 23:46:28;;;;;;;3.83;0.77;;;;;;;22.28;100.00;97994.09;15267333;19;20046;-57
2022/06/26 23:51:36;;;;;;;2.35;0.90;;;;;;;22.17;100.00;97982.91;15271096;19;20010;-53
2022/06/26 23:56:40;;;;;;;1.00;0.80;;;;;;;22.07;100.00;97987.41;15274110;19;20023;-56
